sensor_id;sensor_type;location;lat;lon;timestamp;P1;durP1;ratioP1;P2;durP2;ratioP2
12059;SDS011;6091;51.432;6.880;2023-08-06T00:02:26;1.70;;;1.60;;
12059;SDS011;6091;51.432;6.880;2023-08-06T00:04:53;1.55;;;1.45;;
12059;SDS011;6091;51.432;6.880;2023-08-06T00:07:20;1.50;;;1.40;;
12059;SDS011;6091;51.432;6.880;2023-08-06T00:09:47;1.52;;;1.42;;
12059;SDS011;6091;51.432;6.880;2023-08-06T00:12:15;1.70;;;1.60;;
12059;SDS011;6091;51.432;6.880;2023-08-06T00:14:42;1.40;;;1.30;;
12059;SDS011;6091;51.432;6.880;2023-08-06T00:17:10;1.30;;;1.20;;
12059;SDS011;6091;51.432;6.880;2023-08-06T00:19:37;1.50;;;1.40;;
12059;SDS011;6091;51.432;6.880;2023-08-06T00:22:04;1.40;;;1.30;;
12059;SDS011;6091;51.432;6.880;2023-08-06T00:24:31;1.95;;;1.40;;
12059;SDS011;6091;51.432;6.880;2023-08-06T00:26:58;1.73;;;1.63;;
12059;SDS011;6091;51.432;6.880;2023-08-06T00:29:25;1.58;;;1.42;;
12059;SDS011;6091;51.432;6.880;2023-08-06T00:31:52;1.35;;;1.23;;
12059;SDS011;6091;51.432;6.880;2023-08-06T00:34:19;1.50;;;1.40;;
12059;SDS011;6091;51.432;6.880;2023-08-06T00:36:46;1.75;;;1.50;;
12059;SDS011;6091;51.432;6.880;2023-08-06T00:39:14;1.65;;;1.55;;
12059;SDS011;6091;51.432;6.880;2023-08-06T00:41:41;1.60;;;1.50;;
12059;SDS011;6091;51.432;6.880;2023-08-06T00:44:08;1.67;;;1.40;;
12059;SDS011;6091;51.432;6.880;2023-08-06T00:46:34;1.17;;;1.13;;
12059;SDS011;6091;51.432;6.880;2023-08-06T00:49:01;1.63;;;1.52;;
12059;SDS011;6091;51.432;6.880;2023-08-06T00:51:29;1.70;;;1.60;;
12059;SDS011;6091;51.432;6.880;2023-08-06T00:53:57;1.20;;;1.17;;
12059;SDS011;6091;51.432;6.880;2023-08-06T00:56:24;1.33;;;1.23;;
12059;SDS011;6091;51.432;6.880;2023-08-06T00:58:51;1.40;;;1.30;;
12059;SDS011;6091;51.432;6.880;2023-08-06T01:01:19;1.55;;;1.45;;
12059;SDS011;6091;51.432;6.880;2023-08-06T01:03:46;1.75;;;1.50;;
12059;SDS011;6091;51.432;6.880;2023-08-06T01:06:13;1.45;;;1.35;;
12059;SDS011;6091;51.432;6.880;2023-08-06T01:14:08;1.27;;;1.27;;
12059;SDS011;6091;51.432;6.880;2023-08-06T01:16:56;1.35;;;1.30;;
12059;SDS011;6091;51.432;6.880;2023-08-06T01:19:25;1.30;;;1.20;;
12059;SDS011;6091;51.432;6.880;2023-08-06T01:21:52;1.67;;;1.58;;
12059;SDS011;6091;51.432;6.880;2023-08-06T01:24:20;1.45;;;1.35;;
12059;SDS011;6091;51.432;6.880;2023-08-06T01:27:03;1.52;;;1.42;;
12059;SDS011;6091;51.432;6.880;2023-08-06T01:30:02;1.50;;;1.40;;
12059;SDS011;6091;51.432;6.880;2023-08-06T01:32:36;1.50;;;1.40;;
12059;SDS011;6091;51.432;6.880;2023-08-06T01:35:10;1.33;;;1.23;;
12059;SDS011;6091;51.432;6.880;2023-08-06T01:37:40;1.33;;;1.23;;
12059;SDS011;6091;51.432;6.880;2023-08-06T01:40:11;1.40;;;1.30;;
12059;SDS011;6091;51.432;6.880;2023-08-06T01:42:39;1.50;;;1.40;;
12059;SDS011;6091;51.432;6.880;2023-08-06T01:45:07;1.73;;;1.63;;
12059;SDS011;6091;51.432;6.880;2023-08-06T01:47:35;1.52;;;1.42;;
12059;SDS011;6091;51.432;6.880;2023-08-06T01:50:03;1.50;;;1.40;;
12059;SDS011;6091;51.432;6.880;2023-08-06T01:52:30;1.30;;;1.20;;
12059;SDS011;6091;51.432;6.880;2023-08-06T01:54:57;1.50;;;1.40;;
12059;SDS011;6091;51.432;6.880;2023-08-06T01:57:24;1.52;;;1.42;;
12059;SDS011;6091;51.432;6.880;2023-08-06T01:59:51;1.50;;;1.40;;
12059;SDS011;6091;51.432;6.880;2023-08-06T02:02:18;1.60;;;1.50;;
12059;SDS011;6091;51.432;6.880;2023-08-06T02:04:46;1.35;;;1.25;;
12059;SDS011;6091;51.432;6.880;2023-08-06T02:07:13;1.98;;;1.30;;
12059;SDS011;6091;51.432;6.880;2023-08-06T02:09:44;1.33;;;1.13;;
12059;SDS011;6091;51.432;6.880;2023-08-06T02:12:12;1.48;;;1.38;;
12059;SDS011;6091;51.432;6.880;2023-08-06T02:14:41;1.35;;;1.25;;
12059;SDS011;6091;51.432;6.880;2023-08-06T02:17:10;1.52;;;1.42;;
12059;SDS011;6091;51.432;6.880;2023-08-06T02:19:36;1.38;;;1.27;;
12059;SDS011;6091;51.432;6.880;2023-08-06T02:22:04;1.50;;;1.40;;
12059;SDS011;6091;51.432;6.880;2023-08-06T02:24:31;1.30;;;1.20;;
12059;SDS011;6091;51.432;6.880;2023-08-06T02:26:58;1.60;;;1.50;;
12059;SDS011;6091;51.432;6.880;2023-08-06T02:29:26;1.52;;;1.42;;
12059;SDS011;6091;51.432;6.880;2023-08-06T02:31:53;1.55;;;1.40;;
12059;SDS011;6091;51.432;6.880;2023-08-06T02:34:21;1.50;;;1.40;;
12059;SDS011;6091;51.432;6.880;2023-08-06T02:36:48;1.30;;;1.20;;
12059;SDS011;6091;51.432;6.880;2023-08-06T02:39:15;1.55;;;1.45;;
12059;SDS011;6091;51.432;6.880;2023-08-06T02:41:42;1.50;;;1.40;;
12059;SDS011;6091;51.432;6.880;2023-08-06T02:44:09;1.40;;;1.30;;
12059;SDS011;6091;51.432;6.880;2023-08-06T02:46:36;1.30;;;1.25;;
12059;SDS011;6091;51.432;6.880;2023-08-06T02:49:02;1.40;;;1.30;;
12059;SDS011;6091;51.432;6.880;2023-08-06T02:51:29;1.30;;;1.20;;
12059;SDS011;6091;51.432;6.880;2023-08-06T02:53:56;1.33;;;1.30;;
12059;SDS011;6091;51.432;6.880;2023-08-06T02:56:23;1.58;;;1.48;;
12059;SDS011;6091;51.432;6.880;2023-08-06T02:58:51;1.58;;;1.40;;
12059;SDS011;6091;51.432;6.880;2023-08-06T03:01:18;1.33;;;1.30;;
12059;SDS011;6091;51.432;6.880;2023-08-06T03:03:46;1.50;;;1.40;;
12059;SDS011;6091;51.432;6.880;2023-08-06T03:06:13;1.50;;;1.40;;
12059;SDS011;6091;51.432;6.880;2023-08-06T03:08:39;1.60;;;1.50;;
12059;SDS011;6091;51.432;6.880;2023-08-06T03:11:06;1.52;;;1.42;;
12059;SDS011;6091;51.432;6.880;2023-08-06T03:13:33;1.50;;;1.40;;
12059;SDS011;6091;51.432;6.880;2023-08-06T03:16:00;1.40;;;1.20;;
12059;SDS011;6091;51.432;6.880;2023-08-06T03:18:27;1.55;;;1.45;;
12059;SDS011;6091;51.432;6.880;2023-08-06T03:20:54;1.40;;;1.30;;
12059;SDS011;6091;51.432;6.880;2023-08-06T03:23:22;1.30;;;1.25;;
12059;SDS011;6091;51.432;6.880;2023-08-06T03:25:49;1.23;;;1.20;;
12059;SDS011;6091;51.432;6.880;2023-08-06T03:28:16;1.30;;;1.20;;
12059;SDS011;6091;51.432;6.880;2023-08-06T03:30:45;1.50;;;1.30;;
12059;SDS011;6091;51.432;6.880;2023-08-06T03:33:12;1.63;;;1.52;;
12059;SDS011;6091;51.432;6.880;2023-08-06T03:35:39;1.40;;;1.30;;
12059;SDS011;6091;51.432;6.880;2023-08-06T03:38:06;1.40;;;1.30;;
12059;SDS011;6091;51.432;6.880;2023-08-06T03:40:34;1.55;;;1.10;;
12059;SDS011;6091;51.432;6.880;2023-08-06T03:43:02;1.60;;;1.30;;
12059;SDS011;6091;51.432;6.880;2023-08-06T03:45:32;1.13;;;1.10;;
12059;SDS011;6091;51.432;6.880;2023-08-06T03:47:59;1.27;;;1.27;;
12059;SDS011;6091;51.432;6.880;2023-08-06T03:50:26;1.60;;;1.50;;
12059;SDS011;6091;51.432;6.880;2023-08-06T03:52:53;1.48;;;1.38;;
12059;SDS011;6091;51.432;6.880;2023-08-06T03:55:20;1.60;;;1.50;;
12059;SDS011;6091;51.432;6.880;2023-08-06T03:57:48;1.30;;;1.20;;
12059;SDS011;6091;51.432;6.880;2023-08-06T04:00:15;1.30;;;1.20;;
12059;SDS011;6091;51.432;6.880;2023-08-06T04:02:42;1.35;;;1.25;;
12059;SDS011;6091;51.432;6.880;2023-08-06T04:05:09;1.50;;;1.40;;
12059;SDS011;6091;51.432;6.880;2023-08-06T04:07:36;1.50;;;1.40;;
12059;SDS011;6091;51.432;6.880;2023-08-06T04:10:04;1.55;;;1.45;;
12059;SDS011;6091;51.432;6.880;2023-08-06T04:12:31;1.45;;;1.20;;
12059;SDS011;6091;51.432;6.880;2023-08-06T04:15:02;1.63;;;1.35;;
12059;SDS011;6091;51.432;6.880;2023-08-06T04:17:30;1.27;;;1.20;;
12059;SDS011;6091;51.432;6.880;2023-08-06T04:19:57;1.23;;;1.10;;
12059;SDS011;6091;51.432;6.880;2023-08-06T04:22:28;1.17;;;1.08;;
12059;SDS011;6091;51.432;6.880;2023-08-06T04:24:55;1.10;;;1.10;;
12059;SDS011;6091;51.432;6.880;2023-08-06T04:27:22;1.08;;;1.00;;
12059;SDS011;6091;51.432;6.880;2023-08-06T04:29:49;1.05;;;1.02;;
12059;SDS011;6091;51.432;6.880;2023-08-06T04:32:16;1.17;;;1.08;;
12059;SDS011;6091;51.432;6.880;2023-08-06T04:34:45;1.40;;;1.30;;
12059;SDS011;6091;51.432;6.880;2023-08-06T04:37:13;1.10;;;1.00;;
12059;SDS011;6091;51.432;6.880;2023-08-06T04:39:40;1.23;;;1.10;;
12059;SDS011;6091;51.432;6.880;2023-08-06T04:42:06;1.58;;;1.40;;
12059;SDS011;6091;51.432;6.880;2023-08-06T04:44:33;1.40;;;1.30;;
12059;SDS011;6091;51.432;6.880;2023-08-06T04:47:00;1.42;;;1.33;;
12059;SDS011;6091;51.432;6.880;2023-08-06T04:49:27;1.50;;;1.40;;
12059;SDS011;6091;51.432;6.880;2023-08-06T04:51:54;1.23;;;1.13;;
12059;SDS011;6091;51.432;6.880;2023-08-06T04:54:21;1.50;;;1.23;;
12059;SDS011;6091;51.432;6.880;2023-08-06T04:56:49;1.25;;;1.15;;
12059;SDS011;6091;51.432;6.880;2023-08-06T04:59:16;1.27;;;1.17;;
12059;SDS011;6091;51.432;6.880;2023-08-06T05:01:43;1.58;;;1.48;;
12059;SDS011;6091;51.432;6.880;2023-08-06T05:04:10;1.50;;;1.40;;
12059;SDS011;6091;51.432;6.880;2023-08-06T05:06:37;1.20;;;1.20;;
12059;SDS011;6091;51.432;6.880;2023-08-06T05:09:07;1.50;;;1.40;;
12059;SDS011;6091;51.432;6.880;2023-08-06T05:11:35;1.25;;;1.20;;
12059;SDS011;6091;51.432;6.880;2023-08-06T05:14:02;1.65;;;1.23;;
12059;SDS011;6091;51.432;6.880;2023-08-06T05:16:29;1.77;;;1.33;;
12059;SDS011;6091;51.432;6.880;2023-08-06T05:18:56;1.02;;;1.02;;
12059;SDS011;6091;51.432;6.880;2023-08-06T05:21:23;1.42;;;1.33;;
12059;SDS011;6091;51.432;6.880;2023-08-06T05:23:50;1.30;;;1.20;;
12059;SDS011;6091;51.432;6.880;2023-08-06T05:26:17;1.25;;;1.17;;
12059;SDS011;6091;51.432;6.880;2023-08-06T05:28:45;1.08;;;1.08;;
12059;SDS011;6091;51.432;6.880;2023-08-06T05:31:12;1.40;;;1.30;;
12059;SDS011;6091;51.432;6.880;2023-08-06T05:33:40;1.50;;;1.40;;
12059;SDS011;6091;51.432;6.880;2023-08-06T05:36:07;2.17;;;1.27;;
12059;SDS011;6091;51.432;6.880;2023-08-06T05:38:34;1.50;;;1.40;;
12059;SDS011;6091;51.432;6.880;2023-08-06T05:41:00;1.25;;;1.17;;
12059;SDS011;6091;51.432;6.880;2023-08-06T05:43:27;1.10;;;1.10;;
12059;SDS011;6091;51.432;6.880;2023-08-06T05:45:55;1.50;;;1.40;;
12059;SDS011;6091;51.432;6.880;2023-08-06T05:48:23;1.33;;;1.20;;
12059;SDS011;6091;51.432;6.880;2023-08-06T05:50:51;1.90;;;1.45;;
12059;SDS011;6091;51.432;6.880;2023-08-06T05:53:18;1.40;;;1.30;;
12059;SDS011;6091;51.432;6.880;2023-08-06T05:55:45;1.23;;;1.13;;
12059;SDS011;6091;51.432;6.880;2023-08-06T05:58:13;1.33;;;1.13;;
12059;SDS011;6091;51.432;6.880;2023-08-06T06:00:40;1.40;;;1.30;;
12059;SDS011;6091;51.432;6.880;2023-08-06T06:03:07;1.35;;;1.25;;
12059;SDS011;6091;51.432;6.880;2023-08-06T06:05:37;1.27;;;1.17;;
12059;SDS011;6091;51.432;6.880;2023-08-06T06:08:05;1.45;;;1.08;;
12059;SDS011;6091;51.432;6.880;2023-08-06T06:10:32;1.60;;;1.50;;
12059;SDS011;6091;51.432;6.880;2023-08-06T06:12:59;1.63;;;1.52;;
12059;SDS011;6091;51.432;6.880;2023-08-06T06:15:26;1.00;;;1.00;;
12059;SDS011;6091;51.432;6.880;2023-08-06T06:17:53;1.70;;;1.60;;
12059;SDS011;6091;51.432;6.880;2023-08-06T06:20:20;1.40;;;1.30;;
12059;SDS011;6091;51.432;6.880;2023-08-06T06:22:47;1.40;;;1.30;;
12059;SDS011;6091;51.432;6.880;2023-08-06T06:25:14;1.30;;;1.20;;
12059;SDS011;6091;51.432;6.880;2023-08-06T06:27:41;1.15;;;1.05;;
12059;SDS011;6091;51.432;6.880;2023-08-06T06:30:08;1.40;;;1.30;;
12059;SDS011;6091;51.432;6.880;2023-08-06T06:32:35;1.38;;;1.27;;
12059;SDS011;6091;51.432;6.880;2023-08-06T06:35:02;1.30;;;1.20;;
12059;SDS011;6091;51.432;6.880;2023-08-06T06:37:30;1.30;;;1.20;;
12059;SDS011;6091;51.432;6.880;2023-08-06T06:39:57;1.25;;;1.15;;
12059;SDS011;6091;51.432;6.880;2023-08-06T06:42:25;1.10;;;1.00;;
12059;SDS011;6091;51.432;6.880;2023-08-06T06:44:52;1.20;;;1.10;;
12059;SDS011;6091;51.432;6.880;2023-08-06T06:47:20;1.33;;;1.23;;
12059;SDS011;6091;51.432;6.880;2023-08-06T06:49:48;1.13;;;1.05;;
12059;SDS011;6091;51.432;6.880;2023-08-06T06:52:15;1.38;;;1.27;;
12059;SDS011;6091;51.432;6.880;2023-08-06T06:54:42;1.27;;;1.17;;
12059;SDS011;6091;51.432;6.880;2023-08-06T06:57:09;1.30;;;1.20;;
12059;SDS011;6091;51.432;6.880;2023-08-06T06:59:36;1.38;;;1.13;;
12059;SDS011;6091;51.432;6.880;2023-08-06T07:02:07;1.58;;;1.23;;
12059;SDS011;6091;51.432;6.880;2023-08-06T07:04:34;1.73;;;1.20;;
12059;SDS011;6091;51.432;6.880;2023-08-06T07:07:01;1.45;;;1.35;;
12059;SDS011;6091;51.432;6.880;2023-08-06T07:09:28;1.50;;;1.40;;
12059;SDS011;6091;51.432;6.880;2023-08-06T07:11:55;1.30;;;1.20;;
12059;SDS011;6091;51.432;6.880;2023-08-06T07:14:24;1.48;;;1.25;;
12059;SDS011;6091;51.432;6.880;2023-08-06T07:16:52;2.25;;;1.42;;
12059;SDS011;6091;51.432;6.880;2023-08-06T07:19:19;1.30;;;1.20;;
12059;SDS011;6091;51.432;6.880;2023-08-06T07:21:46;6.03;;;1.50;;
12059;SDS011;6091;51.432;6.880;2023-08-06T07:24:13;3.17;;;1.20;;
12059;SDS011;6091;51.432;6.880;2023-08-06T07:26:41;4.90;;;1.60;;
12059;SDS011;6091;51.432;6.880;2023-08-06T07:29:08;3.25;;;1.40;;
12059;SDS011;6091;51.432;6.880;2023-08-06T07:31:35;2.85;;;1.50;;
12059;SDS011;6091;51.432;6.880;2023-08-06T07:34:03;1.90;;;1.40;;
12059;SDS011;6091;51.432;6.880;2023-08-06T07:36:29;3.47;;;1.35;;
12059;SDS011;6091;51.432;6.880;2023-08-06T07:38:57;1.67;;;1.40;;
12059;SDS011;6091;51.432;6.880;2023-08-06T07:41:25;2.67;;;1.30;;
12059;SDS011;6091;51.432;6.880;2023-08-06T07:43:52;3.88;;;1.48;;
12059;SDS011;6091;51.432;6.880;2023-08-06T07:46:19;2.63;;;1.38;;
12059;SDS011;6091;51.432;6.880;2023-08-06T07:48:46;1.77;;;1.45;;
12059;SDS011;6091;51.432;6.880;2023-08-06T07:51:13;2.17;;;1.20;;
12059;SDS011;6091;51.432;6.880;2023-08-06T07:53:40;1.88;;;1.20;;
12059;SDS011;6091;51.432;6.880;2023-08-06T07:56:07;1.50;;;1.40;;
12059;SDS011;6091;51.432;6.880;2023-08-06T07:58:34;2.10;;;1.50;;
12059;SDS011;6091;51.432;6.880;2023-08-06T08:01:01;1.25;;;1.08;;
12059;SDS011;6091;51.432;6.880;2023-08-06T08:03:31;1.42;;;1.20;;
12059;SDS011;6091;51.432;6.880;2023-08-06T08:05:58;2.95;;;1.38;;
12059;SDS011;6091;51.432;6.880;2023-08-06T08:08:25;3.20;;;1.33;;
12059;SDS011;6091;51.432;6.880;2023-08-06T08:10:56;1.40;;;1.30;;
12059;SDS011;6091;51.432;6.880;2023-08-06T08:13:25;1.65;;;1.20;;
12059;SDS011;6091;51.432;6.880;2023-08-06T08:15:56;1.30;;;1.20;;
12059;SDS011;6091;51.432;6.880;2023-08-06T08:18:28;1.20;;;1.10;;
12059;SDS011;6091;51.432;6.880;2023-08-06T08:20:56;2.38;;;1.23;;
12059;SDS011;6091;51.432;6.880;2023-08-06T08:23:23;1.63;;;1.20;;
12059;SDS011;6091;51.432;6.880;2023-08-06T08:25:50;1.90;;;1.30;;
12059;SDS011;6091;51.432;6.880;2023-08-06T08:28:17;1.27;;;1.17;;
12059;SDS011;6091;51.432;6.880;2023-08-06T08:30:44;1.38;;;1.27;;
12059;SDS011;6091;51.432;6.880;2023-08-06T08:33:11;1.40;;;1.20;;
12059;SDS011;6091;51.432;6.880;2023-08-06T08:35:39;1.17;;;0.95;;
12059;SDS011;6091;51.432;6.880;2023-08-06T08:38:06;2.05;;;1.40;;
12059;SDS011;6091;51.432;6.880;2023-08-06T08:40:33;2.25;;;1.50;;
12059;SDS011;6091;51.432;6.880;2023-08-06T08:43:13;1.52;;;1.30;;
12059;SDS011;6091;51.432;6.880;2023-08-06T08:45:42;1.30;;;1.20;;
12059;SDS011;6091;51.432;6.880;2023-08-06T08:48:11;1.52;;;1.30;;
12059;SDS011;6091;51.432;6.880;2023-08-06T08:50:42;1.35;;;1.02;;
12059;SDS011;6091;51.432;6.880;2023-08-06T08:53:12;1.63;;;1.15;;
12059;SDS011;6091;51.432;6.880;2023-08-06T08:55:43;1.33;;;1.08;;
12059;SDS011;6091;51.432;6.880;2023-08-06T08:58:14;1.33;;;1.23;;
12059;SDS011;6091;51.432;6.880;2023-08-06T09:00:42;1.42;;;1.33;;
12059;SDS011;6091;51.432;6.880;2023-08-06T09:03:12;1.42;;;1.33;;
12059;SDS011;6091;51.432;6.880;2023-08-06T09:05:40;2.15;;;1.40;;
12059;SDS011;6091;51.432;6.880;2023-08-06T09:08:18;1.48;;;1.33;;
12059;SDS011;6091;51.432;6.880;2023-08-06T09:10:55;1.80;;;1.65;;
12059;SDS011;6091;51.432;6.880;2023-08-06T09:13:24;1.67;;;1.50;;
12059;SDS011;6091;51.432;6.880;2023-08-06T09:19:10;3.17;;;1.60;;
12059;SDS011;6091;51.432;6.880;2023-08-06T09:21:45;1.70;;;1.60;;
12059;SDS011;6091;51.432;6.880;2023-08-06T09:24:15;1.83;;;1.70;;
12059;SDS011;6091;51.432;6.880;2023-08-06T09:26:43;2.08;;;1.88;;
12059;SDS011;6091;51.432;6.880;2023-08-06T09:29:11;1.88;;;1.67;;
12059;SDS011;6091;51.432;6.880;2023-08-06T09:31:41;2.03;;;1.60;;
12059;SDS011;6091;51.432;6.880;2023-08-06T09:34:18;2.20;;;2.00;;
12059;SDS011;6091;51.432;6.880;2023-08-06T09:36:50;2.75;;;2.10;;
12059;SDS011;6091;51.432;6.880;2023-08-06T09:39:20;2.00;;;1.80;;
12059;SDS011;6091;51.432;6.880;2023-08-06T09:42:00;1.77;;;1.67;;
12059;SDS011;6091;51.432;6.880;2023-08-06T09:44:29;2.00;;;1.90;;
12059;SDS011;6091;51.432;6.880;2023-08-06T09:47:02;1.90;;;1.80;;
12059;SDS011;6091;51.432;6.880;2023-08-06T09:51:59;2.30;;;2.10;;
12059;SDS011;6091;51.432;6.880;2023-08-06T09:54:27;2.05;;;1.95;;
12059;SDS011;6091;51.432;6.880;2023-08-06T09:56:56;2.78;;;2.00;;
12059;SDS011;6091;51.432;6.880;2023-08-06T09:59:24;1.90;;;1.80;;
12059;SDS011;6091;51.432;6.880;2023-08-06T10:01:51;2.30;;;2.10;;
12059;SDS011;6091;51.432;6.880;2023-08-06T10:04:24;1.85;;;1.73;;
12059;SDS011;6091;51.432;6.880;2023-08-06T10:07:00;2.28;;;2.08;;
12059;SDS011;6091;51.432;6.880;2023-08-06T10:09:28;2.20;;;2.00;;
12059;SDS011;6091;51.432;6.880;2023-08-06T10:11:55;1.98;;;1.85;;
12059;SDS011;6091;51.432;6.880;2023-08-06T10:14:26;2.00;;;1.90;;
12059;SDS011;6091;51.432;6.880;2023-08-06T10:16:59;2.08;;;1.90;;
12059;SDS011;6091;51.432;6.880;2023-08-06T10:19:27;2.10;;;1.90;;
12059;SDS011;6091;51.432;6.880;2023-08-06T10:24:54;2.13;;;2.03;;
12059;SDS011;6091;51.432;6.880;2023-08-06T10:28:09;1.90;;;1.80;;
12059;SDS011;6091;51.432;6.880;2023-08-06T10:33:03;2.45;;;2.10;;
12059;SDS011;6091;51.432;6.880;2023-08-06T10:35:37;2.53;;;2.00;;
12059;SDS011;6091;51.432;6.880;2023-08-06T10:38:17;2.30;;;2.10;;
12059;SDS011;6091;51.432;6.880;2023-08-06T10:43:34;2.33;;;2.08;;
12059;SDS011;6091;51.432;6.880;2023-08-06T10:46:09;1.92;;;1.83;;
12059;SDS011;6091;51.432;6.880;2023-08-06T10:51:11;2.05;;;1.83;;
12059;SDS011;6091;51.432;6.880;2023-08-06T10:53:41;1.70;;;1.60;;
12059;SDS011;6091;51.432;6.880;2023-08-06T10:56:17;2.22;;;2.03;;
12059;SDS011;6091;51.432;6.880;2023-08-06T10:58:51;1.90;;;1.80;;
12059;SDS011;6091;51.432;6.880;2023-08-06T11:01:22;2.30;;;2.10;;
12059;SDS011;6091;51.432;6.880;2023-08-06T11:03:50;1.80;;;1.70;;
12059;SDS011;6091;51.432;6.880;2023-08-06T11:06:20;2.20;;;2.00;;
12059;SDS011;6091;51.432;6.880;2023-08-06T11:08:50;2.20;;;2.10;;
12059;SDS011;6091;51.432;6.880;2023-08-06T11:11:19;3.15;;;2.20;;
12059;SDS011;6091;51.432;6.880;2023-08-06T11:13:50;2.10;;;2.00;;
12059;SDS011;6091;51.432;6.880;2023-08-06T11:16:19;2.28;;;2.10;;
12059;SDS011;6091;51.432;6.880;2023-08-06T11:18:50;2.15;;;1.98;;
12059;SDS011;6091;51.432;6.880;2023-08-06T11:21:22;2.10;;;1.98;;
12059;SDS011;6091;51.432;6.880;2023-08-06T11:23:51;1.83;;;1.73;;
12059;SDS011;6091;51.432;6.880;2023-08-06T11:26:19;2.40;;;2.20;;
12059;SDS011;6091;51.432;6.880;2023-08-06T11:28:47;2.10;;;1.90;;
12059;SDS011;6091;51.432;6.880;2023-08-06T11:31:22;1.98;;;1.77;;
12059;SDS011;6091;51.432;6.880;2023-08-06T11:33:50;1.83;;;1.73;;
12059;SDS011;6091;51.432;6.880;2023-08-06T11:39:00;1.92;;;1.83;;
12059;SDS011;6091;51.432;6.880;2023-08-06T11:41:29;1.67;;;1.58;;
12059;SDS011;6091;51.432;6.880;2023-08-06T11:43:57;1.90;;;1.80;;
12059;SDS011;6091;51.432;6.880;2023-08-06T11:46:25;1.50;;;1.40;;
12059;SDS011;6091;51.432;6.880;2023-08-06T11:48:53;1.45;;;1.35;;
12059;SDS011;6091;51.432;6.880;2023-08-06T11:51:22;1.42;;;1.33;;
12059;SDS011;6091;51.432;6.880;2023-08-06T11:53:58;1.60;;;1.30;;
12059;SDS011;6091;51.432;6.880;2023-08-06T11:56:25;1.52;;;1.42;;
12059;SDS011;6091;51.432;6.880;2023-08-06T11:58:54;1.30;;;1.30;;
12059;SDS011;6091;51.432;6.880;2023-08-06T12:01:22;1.40;;;1.30;;
12059;SDS011;6091;51.432;6.880;2023-08-06T12:03:49;1.50;;;1.40;;
12059;SDS011;6091;51.432;6.880;2023-08-06T12:06:16;1.40;;;1.30;;
12059;SDS011;6091;51.432;6.880;2023-08-06T12:08:43;1.20;;;1.10;;
12059;SDS011;6091;51.432;6.880;2023-08-06T12:11:10;1.13;;;1.13;;
12059;SDS011;6091;51.432;6.880;2023-08-06T12:13:40;1.35;;;1.25;;
12059;SDS011;6091;51.432;6.880;2023-08-06T12:16:07;1.23;;;1.13;;
12059;SDS011;6091;51.432;6.880;2023-08-06T12:18:35;1.48;;;1.30;;
12059;SDS011;6091;51.432;6.880;2023-08-06T12:21:02;0.93;;;0.90;;
12059;SDS011;6091;51.432;6.880;2023-08-06T12:23:29;1.17;;;1.15;;
12059;SDS011;6091;51.432;6.880;2023-08-06T12:25:59;1.00;;;1.00;;
12059;SDS011;6091;51.432;6.880;2023-08-06T12:28:26;1.08;;;0.98;;
12059;SDS011;6091;51.432;6.880;2023-08-06T12:30:53;1.10;;;1.00;;
12059;SDS011;6091;51.432;6.880;2023-08-06T12:33:21;1.10;;;1.00;;
12059;SDS011;6091;51.432;6.880;2023-08-06T12:35:48;1.00;;;1.00;;
12059;SDS011;6091;51.432;6.880;2023-08-06T12:38:15;0.90;;;0.90;;
12059;SDS011;6091;51.432;6.880;2023-08-06T12:40:42;1.13;;;1.02;;
12059;SDS011;6091;51.432;6.880;2023-08-06T12:43:09;0.93;;;0.93;;
12059;SDS011;6091;51.432;6.880;2023-08-06T12:45:36;0.75;;;0.75;;
12059;SDS011;6091;51.432;6.880;2023-08-06T12:48:05;1.10;;;0.88;;
12059;SDS011;6091;51.432;6.880;2023-08-06T12:50:33;0.90;;;0.90;;
12059;SDS011;6091;51.432;6.880;2023-08-06T12:53:01;0.80;;;0.80;;
12059;SDS011;6091;51.432;6.880;2023-08-06T12:55:28;0.95;;;0.80;;
12059;SDS011;6091;51.432;6.880;2023-08-06T12:57:58;0.80;;;0.80;;
12059;SDS011;6091;51.432;6.880;2023-08-06T13:00:26;0.80;;;0.80;;
12059;SDS011;6091;51.432;6.880;2023-08-06T13:02:53;0.85;;;0.85;;
12059;SDS011;6091;51.432;6.880;2023-08-06T13:05:23;1.58;;;0.80;;
12059;SDS011;6091;51.432;6.880;2023-08-06T13:07:51;1.00;;;0.90;;
12059;SDS011;6091;51.432;6.880;2023-08-06T13:10:18;1.35;;;0.95;;
12059;SDS011;6091;51.432;6.880;2023-08-06T13:12:46;0.75;;;0.75;;
12059;SDS011;6091;51.432;6.880;2023-08-06T13:15:13;1.48;;;0.93;;
12059;SDS011;6091;51.432;6.880;2023-08-06T13:17:41;0.80;;;0.80;;
12059;SDS011;6091;51.432;6.880;2023-08-06T13:20:10;0.98;;;0.80;;
12059;SDS011;6091;51.432;6.880;2023-08-06T13:22:37;2.72;;;1.00;;
12059;SDS011;6091;51.432;6.880;2023-08-06T13:25:04;0.80;;;0.80;;
12059;SDS011;6091;51.432;6.880;2023-08-06T13:27:32;1.00;;;0.90;;
12059;SDS011;6091;51.432;6.880;2023-08-06T13:29:59;0.95;;;0.90;;
12059;SDS011;6091;51.432;6.880;2023-08-06T13:32:26;0.90;;;0.82;;
12059;SDS011;6091;51.432;6.880;2023-08-06T13:34:53;1.48;;;0.80;;
12059;SDS011;6091;51.432;6.880;2023-08-06T13:37:22;0.88;;;0.88;;
12059;SDS011;6091;51.432;6.880;2023-08-06T13:39:49;0.90;;;0.80;;
12059;SDS011;6091;51.432;6.880;2023-08-06T13:42:16;0.80;;;0.80;;
12059;SDS011;6091;51.432;6.880;2023-08-06T13:44:43;0.88;;;0.88;;
12059;SDS011;6091;51.432;6.880;2023-08-06T13:47:10;1.08;;;0.98;;
12059;SDS011;6091;51.432;6.880;2023-08-06T13:49:37;0.70;;;0.70;;
12059;SDS011;6091;51.432;6.880;2023-08-06T13:52:04;0.80;;;0.80;;
12059;SDS011;6091;51.432;6.880;2023-08-06T13:54:47;1.20;;;1.10;;
12059;SDS011;6091;51.432;6.880;2023-08-06T13:57:15;1.45;;;1.00;;
12059;SDS011;6091;51.432;6.880;2023-08-06T13:59:44;1.27;;;1.17;;
12059;SDS011;6091;51.432;6.880;2023-08-06T14:02:11;0.95;;;0.95;;
12059;SDS011;6091;51.432;6.880;2023-08-06T14:04:38;1.38;;;1.27;;
12059;SDS011;6091;51.432;6.880;2023-08-06T14:07:06;1.30;;;1.20;;
12059;SDS011;6091;51.432;6.880;2023-08-06T14:09:33;1.50;;;1.40;;
12059;SDS011;6091;51.432;6.880;2023-08-06T14:12:00;2.92;;;1.13;;
12059;SDS011;6091;51.432;6.880;2023-08-06T14:14:28;2.00;;;1.20;;
12059;SDS011;6091;51.432;6.880;2023-08-06T14:16:55;2.03;;;1.20;;
12059;SDS011;6091;51.432;6.880;2023-08-06T14:19:23;2.08;;;1.35;;
12059;SDS011;6091;51.432;6.880;2023-08-06T14:21:50;1.42;;;1.33;;
12059;SDS011;6091;51.432;6.880;2023-08-06T14:24:17;2.30;;;1.33;;
12059;SDS011;6091;51.432;6.880;2023-08-06T14:26:45;1.58;;;1.25;;
12059;SDS011;6091;51.432;6.880;2023-08-06T14:29:12;1.92;;;1.30;;
12059;SDS011;6091;51.432;6.880;2023-08-06T14:31:40;1.65;;;1.30;;
12059;SDS011;6091;51.432;6.880;2023-08-06T14:34:07;1.98;;;1.35;;
12059;SDS011;6091;51.432;6.880;2023-08-06T14:36:34;1.33;;;1.23;;
12059;SDS011;6091;51.432;6.880;2023-08-06T14:39:01;2.10;;;1.40;;
12059;SDS011;6091;51.432;6.880;2023-08-06T14:41:28;2.92;;;1.10;;
12059;SDS011;6091;51.432;6.880;2023-08-06T14:43:58;2.80;;;1.58;;
12059;SDS011;6091;51.432;6.880;2023-08-06T14:46:25;2.40;;;1.50;;
12059;SDS011;6091;51.432;6.880;2023-08-06T14:48:52;1.45;;;1.35;;
12059;SDS011;6091;51.432;6.880;2023-08-06T14:51:19;1.40;;;1.30;;
12059;SDS011;6091;51.432;6.880;2023-08-06T14:53:47;2.65;;;1.00;;
12059;SDS011;6091;51.432;6.880;2023-08-06T14:56:14;1.30;;;1.20;;
12059;SDS011;6091;51.432;6.880;2023-08-06T14:58:42;2.03;;;1.40;;
12059;SDS011;6091;51.432;6.880;2023-08-06T15:01:09;1.25;;;1.15;;
12059;SDS011;6091;51.432;6.880;2023-08-06T15:03:36;1.55;;;1.30;;
12059;SDS011;6091;51.432;6.880;2023-08-06T15:06:03;3.25;;;1.23;;
12059;SDS011;6091;51.432;6.880;2023-08-06T15:08:30;1.67;;;1.30;;
12059;SDS011;6091;51.432;6.880;2023-08-06T15:10:57;4.40;;;1.10;;
12059;SDS011;6091;51.432;6.880;2023-08-06T15:13:24;1.33;;;1.17;;
12059;SDS011;6091;51.432;6.880;2023-08-06T15:15:51;3.75;;;1.63;;
12059;SDS011;6091;51.432;6.880;2023-08-06T15:18:18;1.85;;;1.40;;
12059;SDS011;6091;51.432;6.880;2023-08-06T15:20:45;2.70;;;1.30;;
12059;SDS011;6091;51.432;6.880;2023-08-06T15:23:13;4.03;;;1.73;;
12059;SDS011;6091;51.432;6.880;2023-08-06T15:25:40;3.15;;;1.40;;
12059;SDS011;6091;51.432;6.880;2023-08-06T15:28:07;2.83;;;1.20;;
12059;SDS011;6091;51.432;6.880;2023-08-06T15:30:34;1.77;;;1.20;;
12059;SDS011;6091;51.432;6.880;2023-08-06T15:33:02;2.00;;;1.40;;